Senshu Maru — JCIR — position and weather

sailwx.info

Track history (hours):
 
Tides and Currents Weather Stations Pressure Air Temp Water Temp Dewpoint Dewpoint Depression Visibility Wind Speed Wind Dir Waves Ship Positions

Oceanographic research ship Senshu Maru (Japan)

Detailed information on ship capabilities available from University of Delaware's Ocean Information Center.

Last reported at 2014-Oct-20 06:29 UTC. Time now 2014-Nov-26 07:32 UTC.
Position N 34°03' E 134°56'.
Warning: this ship's position is 37 days out of date.

Length 283 m; beam 44.8 m.

Type: Ship (hazmat cat A). MMSI: 431023000.

Date/timePositionNaut miles runAvg speedWind from/ knotsBaromVisibWave heightAir tempDewpointWater temp
2014-Oct-20 06:29N 34°03' E 134°56'1011.1
2014-Oct-20 05:33N 34°13' E 134°57'1211.6
2014-Oct-20 04:33N 34°24' E 135°03'1313.1
2014-Oct-20 03:33N 34°32' E 135°15'8 8.0
2014-Oct-20 02:33N 34°33' E 135°25'0 0.0
2014-Oct-19 04:33N 34°33' E 135°25'0 0.0
2014-Oct-19 03:31N 34°33' E 135°25'2 1.9
2014-Oct-19 02:32N 34°33' E 135°23'1010.3
2014-Oct-19 01:33N 34°29' E 135°11'1212.2
2014-Oct-19 00:33N 34°20' E 135°01'1110.7
2014-Oct-18 23:33N 34°09' E 134°59'9 8.7
2014-Oct-18 22:33N 34°01' E 134°57'1010.4
2014-Oct-18 21:33N 33°51' E 134°58'  
Track history (hours):
 
Tides and Currents Weather Stations Pressure Air Temp Water Temp Dewpoint Dewpoint Depression Visibility Wind Speed Wind Dir Waves Ship Positions

Oceanographic research ship Senshu Maru (Japan)

Detailed information on ship capabilities available from University of Delaware's Ocean Information Center.

Last reported at 2014-Oct-20 06:29 UTC. Time now 2014-Nov-26 07:32 UTC.
Position N 34°03' E 134°56'.
Warning: this ship's position is 37 days out of date.

Length 283 m; beam 44.8 m.

Type: Ship (hazmat cat A). MMSI: 431023000.

Date/timePositionNaut miles runAvg speedWind from/ knotsBaromVisibWave heightAir tempDewpointWater temp
2014-Oct-20 06:29N 34°03' E 134°56'1011.1
2014-Oct-20 05:33N 34°13' E 134°57'1211.6
2014-Oct-20 04:33N 34°24' E 135°03'1313.1
2014-Oct-20 03:33N 34°32' E 135°15'8 8.0
2014-Oct-20 02:33N 34°33' E 135°25'0 0.0
2014-Oct-19 04:33N 34°33' E 135°25'0 0.0
2014-Oct-19 03:31N 34°33' E 135°25'2 1.9
2014-Oct-19 02:32N 34°33' E 135°23'1010.3
2014-Oct-19 01:33N 34°29' E 135°11'1212.2
2014-Oct-19 00:33N 34°20' E 135°01'1110.7
2014-Oct-18 23:33N 34°09' E 134°59'9 8.7
2014-Oct-18 22:33N 34°01' E 134°57'1010.4
2014-Oct-18 21:33N 33°51' E 134°58'  

Dump ship's entire track history